Time;durP1;ratioP1;P1;durP2;ratioP2;P2;SDS_P1;SDS_P2;PMS_P1;PMS_P2;Temp;Humidity;BMP_temperature;BMP_pressure;BME280_temperature;BME280_humidity;BME280_pressure;Samples;Min_cycle;Max_cycle;Signal;HPM_P1;HPM_P2
2024/02/16 00:00:16;;;;;;;2.78;1.50;;;;;;;8.95;100.00;92868.34;2107250;28;20066;-82
2024/02/16 00:01:17;;;;;;;3.28;1.70;;;;;;;9.02;100.00;92868.22;2099020;28;20020;-80
2024/02/16 00:02:18;;;;;;;1.85;1.45;;;;;;;8.79;100.00;92865.63;2107195;28;20084;-81
2024/02/16 00:03:19;;;;;;;2.15;1.35;;;;;;;8.87;100.00;92868.88;2115404;28;20084;-82
2024/02/16 00:04:20;;;;;;;2.92;1.30;;;;;;;8.89;100.00;92862.00;2098312;28;20024;-81
2024/02/16 00:05:22;;;;;;;2.95;1.90;;;;;;;8.94;100.00;92866.09;2090528;28;20373;-81
2024/02/16 00:06:23;;;;;;;2.28;1.73;;;;;;;8.92;100.00;92865.78;2098592;28;20449;-82
2024/02/16 00:07:24;;;;;;;3.33;1.60;;;;;;;8.92;100.00;92861.19;2090606;28;20047;-82
2024/02/16 00:08:25;;;;;;;2.55;1.60;;;;;;;8.92;100.00;92863.84;2090551;28;20475;-82
2024/02/16 00:09:27;;;;;;;2.08;1.73;;;;;;;8.90;100.00;92868.81;2098747;28;20104;-81
2024/02/16 00:10:28;;;;;;;3.50;1.50;;;;;;;9.02;100.00;92862.13;2106864;28;20581;-81
2024/02/16 00:11:29;;;;;;;1.73;1.63;;;;;;;8.98;100.00;92867.53;2106863;28;20028;-82
2024/02/16 00:12:31;;;;;;;2.22;1.48;;;;;;;9.05;100.00;92866.66;2106999;28;20043;-81
2024/02/16 00:13:32;;;;;;;2.55;1.63;;;;;;;8.92;100.00;92863.84;2105977;28;20016;-80
2024/02/16 00:15:06;;;;;;;1.83;1.42;;;;;;;8.78;100.00;92869.44;2094797;28;20032;-83
2024/02/16 00:16:07;;;;;;;2.85;1.02;;;;;;;8.95;100.00;92871.00;2098700;28;20142;-82
2024/02/16 00:17:10;;;;;;;3.60;1.25;;;;;;;8.85;100.00;92869.31;2098796;28;20028;-83
2024/02/16 00:18:12;;;;;;;2.35;1.30;;;;;;;9.19;100.00;92870.94;2106823;28;20111;-82
2024/02/16 00:19:13;;;;;;;2.63;1.33;;;;;;;9.25;100.00;92875.38;2098691;28;20024;-81
2024/02/16 00:20:14;;;;;;;1.65;1.38;;;;;;;9.15;100.00;92864.94;2106912;28;20020;-83
2024/02/16 00:21:16;;;;;;;2.97;1.35;;;;;;;9.06;100.00;92871.56;2098706;28;20028;-82
2024/02/16 00:22:17;;;;;;;1.33;1.10;;;;;;;8.93;100.00;92869.94;2098688;28;20095;-81
2024/02/16 00:23:22;;;;;;;2.15;1.38;;;;;;;8.97;100.00;92870.63;2090372;28;20024;-80
2024/02/16 00:24:23;;;;;;;3.47;1.40;;;;;;;8.94;100.00;92876.75;2099420;28;20085;-80
2024/02/16 00:25:24;;;;;;;1.98;1.30;;;;;;;8.97;100.00;92867.94;2106998;28;20044;-81
2024/02/16 00:26:25;;;;;;;4.65;2.95;;;;;;;8.82;100.00;92870.13;2090072;28;20447;-80
2024/02/16 00:27:26;;;;;;;2.58;1.50;;;;;;;8.66;100.00;92873.47;2098755;28;20135;-83
2024/02/16 00:28:26;;;;;;;1.30;1.20;;;;;;;8.70;100.00;92871.50;2115357;28;20093;-82
2024/02/16 00:29:28;;;;;;;2.35;1.50;;;;;;;8.71;100.00;92864.25;2106936;28;20028;-82
2024/02/16 00:30:29;;;;;;;2.13;1.20;;;;;;;8.70;100.00;92870.75;2106797;28;20016;-81
2024/02/16 00:31:31;;;;;;;2.05;1.52;;;;;;;8.80;100.00;92875.13;2106860;28;20054;-80
2024/02/16 00:32:32;;;;;;;2.55;1.45;;;;;;;8.87;100.00;92872.34;2098767;28;20488;-82
2024/02/16 00:33:33;;;;;;;2.30;1.50;;;;;;;8.70;100.00;92876.84;2106797;28;20074;-81
2024/02/16 00:34:36;;;;;;;1.73;1.55;;;;;;;8.80;100.00;92867.88;2106406;28;20465;-81
2024/02/16 00:35:36;;;;;;;1.40;1.30;;;;;;;8.89;100.00;92867.34;2092439;28;20037;-81
2024/02/16 00:36:37;;;;;;;1.92;1.70;;;;;;;8.75;100.00;92872.94;2098612;28;20325;-81
2024/02/16 00:37:38;;;;;;;3.35;1.92;;;;;;;8.85;100.00;92869.31;2106889;28;20031;-82
2024/02/16 00:38:39;;;;;;;2.72;1.63;;;;;;;8.90;100.00;92860.84;2106758;28;20024;-81
2024/02/16 00:39:40;;;;;;;4.28;2.00;;;;;;;8.91;100.00;92862.34;2090059;28;20057;-80
2024/02/16 00:40:43;;;;;;;2.42;1.65;;;;;;;8.77;100.00;92862.59;2092910;28;20131;-80
2024/02/16 00:41:46;;;;;;;2.90;1.63;;;;;;;9.02;100.00;92859.47;2098897;28;20020;-81
2024/02/16 00:42:47;;;;;;;1.98;1.60;;;;;;;9.02;100.00;92860.22;2102172;28;20061;-81
2024/02/16 00:43:48;;;;;;;2.20;1.63;;;;;;;8.80;100.00;92859.88;2098549;28;20081;-80
2024/02/16 00:44:50;;;;;;;3.08;1.60;;;;;;;8.87;100.00;92866.22;2098581;28;20020;-81
2024/02/16 00:45:50;;;;;;;2.30;2.00;;;;;;;8.77;100.00;92858.03;2098595;28;20028;-82
2024/02/16 00:46:51;;;;;;;3.70;2.72;;;;;;;8.77;100.00;92858.03;2106734;28;20020;-80
2024/02/16 00:47:53;;;;;;;5.53;3.90;;;;;;;8.80;100.00;92857.22;2106739;28;20035;-81
2024/02/16 00:48:54;;;;;;;4.22;3.25;;;;;;;8.64;100.00;92859.81;2106778;28;20031;-84
2024/02/16 00:49:55;;;;;;;5.38;3.75;;;;;;;8.74;100.00;92856.19;2114438;28;20022;-81
2024/02/16 00:50:56;;;;;;;5.90;4.28;;;;;;;8.77;100.00;92851.94;2106749;28;20310;-82
2024/02/16 00:51:57;;;;;;;5.57;4.07;;;;;;;8.67;100.00;92847.59;2098300;28;20070;-80
2024/02/16 00:53:00;;;;;;;4.13;3.38;;;;;;;8.80;100.00;92848.47;2098557;28;20059;-81
2024/02/16 00:54:01;;;;;;;3.08;2.75;;;;;;;8.73;100.00;92843.28;2106838;28;20033;-81
2024/02/16 00:55:03;;;;;;;6.15;3.10;;;;;;;8.68;100.00;92846.41;2107252;28;20042;-82
2024/02/16 00:56:06;;;;;;;3.80;3.03;;;;;;;8.78;100.00;92840.13;2106701;28;20077;-81
2024/02/16 00:57:08;;;;;;;5.22;3.03;;;;;;;8.74;100.00;92834.88;2098711;28;20025;-82
2024/02/16 00:58:09;;;;;;;3.67;3.13;;;;;;;8.78;100.00;92834.78;2106615;28;20412;-81
2024/02/16 00:59:10;;;;;;;2.85;2.55;;;;;;;8.87;100.00;92840.34;2106847;28;20028;-81
2024/02/16 01:00:12;;;;;;;3.30;2.80;;;;;;;8.92;100.00;92847.13;2098416;28;20074;-80
2024/02/16 01:01:16;;;;;;;2.83;2.40;;;;;;;8.86;100.00;92854.81;2106701;28;20586;-80
2024/02/16 01:02:16;;;;;;;3.03;2.15;;;;;;;9.03;100.00;92844.97;2115225;28;20028;-82
2024/02/16 01:03:17;;;;;;;2.72;2.10;;;;;;;8.94;100.00;92845.53;2103481;28;20027;-82
2024/02/16 01:04:18;;;;;;;4.53;2.15;;;;;;;9.01;100.00;92850.72;2095198;28;20071;-79
2024/02/16 01:05:19;;;;;;;2.92;2.65;;;;;;;8.91;100.00;92856.25;2091685;28;20030;-81
2024/02/16 01:06:21;;;;;;;3.22;2.13;;;;;;;8.90;100.00;92855.50;2040443;28;20105;-81
2024/02/16 01:07:21;;;;;;;2.38;1.80;;;;;;;8.98;100.00;92864.13;2050889;28;20124;-80
2024/02/16 01:08:23;;;;;;;2.53;1.85;;;;;;;9.03;100.00;92863.63;2045499;28;20028;-79
2024/02/16 01:09:24;;;;;;;2.97;1.88;;;;;;;9.02;100.00;92854.88;2048847;28;20028;-81
2024/02/16 01:10:25;;;;;;;1.98;1.70;;;;;;;8.97;100.00;92854.63;2053349;28;20060;-80
2024/02/16 01:11:26;;;;;;;4.13;1.92;;;;;;;8.97;100.00;92852.69;2062291;28;20031;-80
2024/02/16 01:12:27;;;;;;;3.20;2.35;;;;;;;8.85;100.00;92861.31;2078137;27;20057;-81
2024/02/16 01:13:28;;;;;;;2.20;1.90;;;;;;;8.56;100.00;92867.19;2080331;27;20023;-80
2024/02/16 01:14:29;;;;;;;2.97;2.10;;;;;;;8.82;100.00;92859.47;2079986;28;20024;-81
2024/02/16 01:15:30;;;;;;;2.97;2.40;;;;;;;8.81;100.00;92860.63;2083148;28;20035;-80
2024/02/16 01:16:31;;;;;;;6.20;2.42;;;;;;;8.69;100.00;92858.56;2091492;28;20043;-80
2024/02/16 01:17:32;;;;;;;3.53;2.80;;;;;;;8.78;100.00;92859.56;2035448;28;20032;-80
2024/02/16 01:18:36;;;;;;;3.65;2.22;;;;;;;8.83;100.00;92864.41;2041931;28;20966;-79
2024/02/16 01:19:37;;;;;;;2.55;1.70;;;;;;;8.77;100.00;92862.59;2041930;28;20115;-81
2024/02/16 01:20:38;;;;;;;2.85;2.15;;;;;;;8.75;100.00;92868.34;2049481;28;20020;-80
2024/02/16 01:21:39;;;;;;;3.42;2.08;;;;;;;8.78;100.00;92869.44;2055954;28;20511;-81
2024/02/16 01:22:40;;;;;;;4.10;2.17;;;;;;;8.77;100.00;92863.34;2060517;28;20028;-79
2024/02/16 01:23:41;;;;;;;3.25;2.00;;;;;;;8.80;100.00;92869.78;2066717;28;20037;-81
2024/02/16 01:24:42;;;;;;;3.42;2.20;;;;;;;8.76;100.00;92866.44;2070936;28;20024;-81
2024/02/16 01:25:43;;;;;;;4.72;2.25;;;;;;;8.77;100.00;92862.59;2073359;28;20111;-80
2024/02/16 01:26:44;;;;;;;3.05;2.00;;;;;;;8.69;100.00;92864.69;2075190;28;20389;-81
2024/02/16 01:27:45;;;;;;;3.55;2.17;;;;;;;8.79;100.00;92868.28;2084012;28;20052;-80
2024/02/16 01:28:46;;;;;;;3.00;1.83;;;;;;;8.62;100.00;92867.47;2101782;28;20127;-81
2024/02/16 01:29:47;;;;;;;3.05;2.33;;;;;;;8.58;100.00;92872.84;2114678;28;20023;-81
2024/02/16 01:30:47;;;;;;;2.28;2.08;;;;;;;8.56;100.00;92871.78;2098019;28;20063;-82
2024/02/16 01:31:49;;;;;;;3.33;2.35;;;;;;;8.52;100.00;92866.50;2105868;28;20434;-80
2024/02/16 01:32:50;;;;;;;4.43;2.40;;;;;;;8.48;100.00;92865.06;2097600;28;20063;-82
2024/02/16 01:33:52;;;;;;;3.08;2.42;;;;;;;8.52;100.00;92863.84;2098022;28;20472;-81
2024/02/16 01:34:53;;;;;;;4.20;2.50;;;;;;;8.49;100.00;92858.56;2097973;28;20040;-81
2024/02/16 01:35:54;;;;;;;2.50;2.17;;;;;;;8.35;100.00;92862.22;2091041;28;20100;-81
2024/02/16 01:36:55;;;;;;;4.97;2.45;;;;;;;8.42;100.00;92866.69;2107206;28;20035;-81
2024/02/16 01:37:56;;;;;;;3.90;2.63;;;;;;;8.41;100.00;92862.50;2114751;28;20097;-82
2024/02/16 01:38:57;;;;;;;3.22;2.40;;;;;;;8.37;100.00;92867.91;2106430;28;20039;-83
2024/02/16 01:39:58;;;;;;;5.05;2.80;;;;;;;8.29;100.00;92864.56;2089615;28;20044;-80
2024/02/16 01:40:59;;;;;;;2.83;2.35;;;;;;;8.36;100.00;92871.69;2090014;28;20091;-82
2024/02/16 01:42:00;;;;;;;4.45;2.53;;;;;;;8.30;100.00;92863.44;2106453;28;20020;-82
2024/02/16 01:43:01;;;;;;;3.60;2.65;;;;;;;8.47;100.00;92866.97;2107159;28;20024;-81
2024/02/16 01:44:02;;;;;;;5.38;2.80;;;;;;;8.46;100.00;92870.03;2106925;28;20123;-81
2024/02/16 01:45:03;;;;;;;5.25;2.75;;;;;;;8.35;100.00;92867.53;2106981;28;20020;-80
2024/02/16 01:46:05;;;;;;;5.85;2.75;;;;;;;8.31;100.00;92875.59;2106325;28;20016;-81
2024/02/16 01:47:06;;;;;;;6.68;2.40;;;;;;;8.33;100.00;92867.94;2097643;28;20028;-81
2024/02/16 01:48:07;;;;;;;4.65;2.40;;;;;;;8.30;100.00;92873.34;2106319;28;20023;-82
2024/02/16 01:49:10;;;;;;;3.85;2.30;;;;;;;8.28;100.00;92872.97;2097919;28;20021;-81
2024/02/16 01:50:11;;;;;;;3.88;2.30;;;;;;;8.26;100.00;92872.66;2084246;28;20079;-82
2024/02/16 01:51:13;;;;;;;5.57;2.22;;;;;;;8.22;100.00;92870.03;2090993;28;20068;-81
2024/02/16 01:52:14;;;;;;;4.90;2.40;;;;;;;8.25;100.00;92873.78;2098064;28;20103;-82
2024/02/16 01:53:23;;;;;;;5.13;2.17;;;;;;;8.16;100.00;92868.97;2089871;28;20064;-81
2024/02/16 01:54:24;;;;;;;3.35;2.17;;;;;;;8.21;100.00;92871.19;2093814;28;20033;-82
2024/02/16 01:55:26;;;;;;;3.60;1.77;;;;;;;8.24;100.00;92872.28;2106276;28;20093;-81
2024/02/16 01:56:28;;;;;;;5.75;2.17;;;;;;;8.20;100.00;92868.94;2101208;28;20081;-81
2024/02/16 01:57:31;;;;;;;5.13;1.92;;;;;;;8.25;100.00;92865.78;2098238;28;20024;-82
2024/02/16 01:58:33;;;;;;;5.35;2.30;;;;;;;8.17;100.00;92867.84;2096817;28;20035;-81
2024/02/16 01:59:36;;;;;;;3.35;2.28;;;;;;;8.05;100.00;92877.16;2089779;28;20079;-82
2024/02/16 02:00:37;;;;;;;4.35;2.45;;;;;;;8.23;100.00;92868.88;2090201;28;20126;-81
2024/02/16 02:01:38;;;;;;;4.57;2.38;;;;;;;8.27;100.00;92868.81;2097911;28;20532;-81
2024/02/16 02:02:39;;;;;;;4.35;2.30;;;;;;;8.22;100.00;92863.97;2081268;28;20022;-82
2024/02/16 02:03:40;;;;;;;5.18;2.08;;;;;;;8.16;100.00;92862.91;2089700;28;20025;-81
2024/02/16 02:04:41;;;;;;;4.25;2.20;;;;;;;8.19;100.00;92865.50;2097893;28;20056;-81
2024/02/16 02:05:46;;;;;;;5.18;2.50;;;;;;;8.23;100.00;92868.13;2097863;28;20082;-80
2024/02/16 02:06:47;;;;;;;4.95;2.05;;;;;;;8.24;100.00;92859.72;2089763;28;20478;-83
2024/02/16 02:07:47;;;;;;;4.90;2.00;;;;;;;8.14;100.00;92865.22;2089695;28;20036;-81
2024/02/16 02:08:49;;;;;;;5.85;2.33;;;;;;;8.10;100.00;92859.97;2089470;28;20107;-80
2024/02/16 02:09:50;;;;;;;3.50;2.05;;;;;;;7.98;100.00;92858.63;2081491;28;20029;-81
2024/02/16 02:10:51;;;;;;;4.90;2.20;;;;;;;7.84;100.00;92861.53;2089436;28;20508;-81
2024/02/16 02:11:52;;;;;;;3.88;2.22;;;;;;;8.12;100.00;92864.88;2097769;28;20364;-81
2024/02/16 02:12:53;;;;;;;4.35;2.08;;;;;;;8.26;100.00;92868.06;2106040;28;20468;-81
2024/02/16 02:13:54;;;;;;;2.65;2.28;;;;;;;8.21;100.00;92867.75;2106149;28;20098;-82
2024/02/16 02:14:55;;;;;;;3.88;2.10;;;;;;;8.11;100.00;92871.34;2106159;28;20120;-83
2024/02/16 02:15:58;;;;;;;2.55;1.98;;;;;;;8.05;100.00;92866.50;2106353;28;20328;-81
2024/02/16 02:16:59;;;;;;;4.03;1.92;;;;;;;7.92;100.00;92868.25;2089474;28;20090;-83
2024/02/16 02:18:00;;;;;;;4.03;1.98;;;;;;;7.98;100.00;92863.19;2097798;28;20028;-80
2024/02/16 02:19:01;;;;;;;2.20;2.00;;;;;;;8.08;100.00;92864.94;2097669;28;20016;-83
2024/02/16 02:20:03;;;;;;;3.35;1.55;;;;;;;8.05;100.00;92866.50;2089480;28;20025;-82
2024/02/16 02:21:04;;;;;;;2.90;1.92;;;;;;;8.16;100.00;92865.56;2096451;28;20043;-81
2024/02/16 02:22:19;;;;;;;1.70;1.60;;;;;;;8.17;100.00;92867.09;2114633;28;20518;-82
2024/02/16 02:23:21;;;;;;;2.63;1.67;;;;;;;8.20;100.00;92855.63;2100184;28;20515;-82
2024/02/16 02:24:22;;;;;;;2.67;1.60;;;;;;;8.26;100.00;92854.00;2097740;28;20028;-81
2024/02/16 02:26:35;;;;;;;;;;;;;;;7.31;100.00;92863.78;2148837;27;20109;-80
2024/02/16 02:27:37;;;;;;;3.10;1.50;;;;;;;7.50;100.00;92858.97;2130122;27;19915;-80
2024/02/16 02:28:38;;;;;;;2.00;1.52;;;;;;;7.51;100.00;92863.16;2121864;27;20023;-81
2024/02/16 02:29:40;;;;;;;2.55;1.80;;;;;;;7.68;100.00;92859.50;2130246;27;20422;-80
2024/02/16 02:30:41;;;;;;;4.53;2.10;;;;;;;7.59;100.00;92859.22;2121869;27;20070;-80
2024/02/16 02:31:42;;;;;;;2.40;1.65;;;;;;;7.64;100.00;92860.69;2113248;28;20485;-82
2024/02/16 02:32:43;;;;;;;1.92;1.73;;;;;;;7.69;100.00;92857.59;2113127;27;20040;-81
2024/02/16 02:33:44;;;;;;;3.00;1.80;;;;;;;7.73;100.00;92850.31;2113005;28;20043;-81
2024/02/16 02:34:45;;;;;;;2.90;1.48;;;;;;;7.66;100.00;92845.81;2104716;28;20024;-81
2024/02/16 02:35:47;;;;;;;4.80;1.88;;;;;;;7.50;100.00;92859.72;2104616;28;20020;-81
2024/02/16 02:36:48;;;;;;;2.03;1.83;;;;;;;7.47;100.00;92851.81;2113160;28;20024;-81
2024/02/16 02:37:49;;;;;;;1.92;1.52;;;;;;;7.38;100.00;92854.97;2096650;28;20031;-80
2024/02/16 02:39:24;;;;;;;2.83;1.70;;;;;;;7.17;100.00;92856.03;2104666;28;20024;-81
2024/02/16 02:40:25;;;;;;;2.90;1.80;;;;;;;7.21;100.00;92854.06;2126502;27;20042;-81
2024/02/16 02:41:26;;;;;;;2.10;1.60;;;;;;;7.24;100.00;92847.97;2113275;28;20030;-82
2024/02/16 02:42:28;;;;;;;2.28;1.90;;;;;;;7.22;100.00;92852.91;2104793;28;20020;-80
2024/02/16 02:43:29;;;;;;;2.67;1.88;;;;;;;7.14;100.00;92846.19;2104861;28;20115;-81
2024/02/16 02:44:31;;;;;;;4.20;1.88;;;;;;;7.09;100.00;92851.19;2104618;28;20330;-82
2024/02/16 02:45:32;;;;;;;3.20;1.80;;;;;;;7.07;100.00;92844.38;2105139;28;20028;-82
2024/02/16 02:46:35;;;;;;;2.10;1.70;;;;;;;7.07;100.00;92846.28;2105052;27;20028;-81
2024/02/16 02:47:36;;;;;;;2.58;1.60;;;;;;;6.99;100.00;92844.88;2128069;27;20026;-81
2024/02/16 02:48:37;;;;;;;2.45;1.45;;;;;;;6.88;100.00;92850.28;2130764;27;20028;-82
2024/02/16 02:49:38;;;;;;;4.10;2.00;;;;;;;6.80;100.00;92844.34;2113236;28;20016;-81
2024/02/16 02:50:39;;;;;;;4.72;2.03;;;;;;;6.89;100.00;92843.06;2104474;28;20024;-81
2024/02/16 02:51:40;;;;;;;3.58;1.95;;;;;;;6.82;100.00;92839.38;2111353;28;20392;-81
2024/02/16 02:52:41;;;;;;;5.10;2.17;;;;;;;7.32;100.00;92836.06;2121346;27;20623;-81
2024/02/16 02:53:43;;;;;;;5.45;1.98;;;;;;;7.13;100.00;92839.38;2130143;27;20027;-81
2024/02/16 02:54:44;;;;;;;4.63;2.08;;;;;;;7.17;100.00;92841.97;2113060;28;20031;-81
2024/02/16 02:55:45;;;;;;;4.32;2.00;;;;;;;7.07;100.00;92835.66;2102825;28;20020;-81
2024/02/16 02:56:46;;;;;;;3.58;1.95;;;;;;;6.96;100.00;92843.75;2115075;27;20055;-81
2024/02/16 02:57:48;;;;;;;4.03;2.20;;;;;;;6.95;100.00;92833.53;2121562;28;20019;-80
2024/02/16 02:58:49;;;;;;;4.05;2.22;;;;;;;6.83;100.00;92834.81;2109304;27;20020;-80
2024/02/16 02:59:50;;;;;;;3.95;2.08;;;;;;;6.82;100.00;92843.94;2113257;28;20411;-82
2024/02/16 03:00:51;;;;;;;3.90;2.00;;;;;;;6.75;100.00;92831.47;2112854;28;20035;-81
2024/02/16 03:01:52;;;;;;;2.90;1.98;;;;;;;6.70;100.00;92828.50;2113251;28;20024;-80
2024/02/16 03:02:53;;;;;;;3.92;1.65;;;;;;;6.70;100.00;92829.25;2112812;28;20024;-81
2024/02/16 03:03:54;;;;;;;3.28;1.95;;;;;;;6.68;100.00;92830.81;2113084;28;20083;-81
2024/02/16 03:04:55;;;;;;;2.95;1.80;;;;;;;6.59;100.00;92830.56;2121492;27;20023;-82
2024/02/16 03:05:57;;;;;;;5.53;2.05;;;;;;;6.46;100.00;92832.97;2131997;27;20022;-81
2024/02/16 03:06:58;;;;;;;2.40;2.05;;;;;;;6.55;100.00;92833.25;2130097;27;20030;-80
2024/02/16 03:08:01;;;;;;;4.00;2.10;;;;;;;6.63;100.00;92831.25;2113083;28;20016;-81
2024/02/16 03:09:02;;;;;;;2.08;1.88;;;;;;;6.54;100.00;92839.69;2122042;27;20023;-83
2024/02/16 03:10:03;;;;;;;3.35;2.05;;;;;;;6.57;100.00;92834.34;2119951;28;20030;-81
2024/02/16 03:11:04;;;;;;;3.67;1.80;;;;;;;6.63;100.00;92828.59;2121257;27;20464;-83
2024/02/16 03:12:05;;;;;;;3.58;2.20;;;;;;;6.67;100.00;92829.31;2129822;27;20060;-81
2024/02/16 03:13:08;;;;;;;3.55;1.80;;;;;;;6.67;100.00;92834.59;2121488;28;20660;-81
2024/02/16 03:14:09;;;;;;;3.25;2.10;;;;;;;6.68;100.00;92836.13;2121686;27;20027;-81
2024/02/16 03:15:10;;;;;;;3.00;2.20;;;;;;;6.69;100.00;92833.06;2121422;27;20019;-82
2024/02/16 03:16:11;;;;;;;4.35;1.88;;;;;;;6.48;100.00;92838.63;2121362;27;20103;-82
2024/02/16 03:17:12;;;;;;;2.75;2.10;;;;;;;6.53;100.00;92836.28;2115802;28;20483;-82
2024/02/16 03:18:13;;;;;;;2.38;1.90;;;;;;;6.55;100.00;92835.91;2128597;27;20066;-82
2024/02/16 03:19:14;;;;;;;3.17;2.00;;;;;;;6.54;100.00;92837.81;2121462;28;20058;-82
2024/02/16 03:20:16;;;;;;;2.42;1.88;;;;;;;6.55;100.00;92844.63;2125853;27;20723;-82
2024/02/16 03:21:17;;;;;;;3.53;2.15;;;;;;;6.52;100.00;92840.09;2130012;27;20026;-79
2024/02/16 03:22:18;;;;;;;3.53;2.00;;;;;;;6.49;100.00;92846.19;2112819;28;20353;-81
2024/02/16 03:23:19;;;;;;;5.70;2.00;;;;;;;6.42;100.00;92848.19;2121328;27;20034;-80
2024/02/16 03:24:20;;;;;;;3.95;2.10;;;;;;;6.52;100.00;92845.41;2121346;27;20084;-81
2024/02/16 03:25:21;;;;;;;3.15;1.95;;;;;;;6.26;100.00;92851.38;2121220;28;20559;-81
2024/02/16 03:26:23;;;;;;;3.20;2.00;;;;;;;6.38;100.00;92853.53;2128850;27;20051;-80
2024/02/16 03:27:23;;;;;;;3.85;1.80;;;;;;;6.45;100.00;92852.69;2121635;27;20427;-82
2024/02/16 03:28:25;;;;;;;3.63;1.83;;;;;;;6.45;100.00;92856.13;2114269;28;20413;-81
2024/02/16 03:29:27;;;;;;;1.80;1.60;;;;;;;6.43;100.00;92850.44;2108642;28;20024;-82
2024/02/16 03:30:27;;;;;;;3.85;1.67;;;;;;;6.52;100.00;92852.63;2111555;28;20034;-81
2024/02/16 03:31:29;;;;;;;2.55;1.75;;;;;;;6.65;100.00;92858.16;2112276;28;20031;-82
2024/02/16 03:32:31;;;;;;;3.60;1.70;;;;;;;6.62;100.00;92856.28;2112459;28;20474;-81
2024/02/16 03:33:32;;;;;;;1.70;1.60;;;;;;;6.66;100.00;92857.00;2103598;28;20489;-82
2024/02/16 03:34:33;;;;;;;2.80;1.92;;;;;;;6.62;100.00;92853.63;2095823;28;20042;-81
2024/02/16 03:35:34;;;;;;;2.58;1.65;;;;;;;6.66;100.00;92854.34;2105481;28;20021;-81
2024/02/16 03:36:37;;;;;;;4.10;1.77;;;;;;;6.63;100.00;92855.13;2121355;27;20031;-81
2024/02/16 03:37:38;;;;;;;2.15;1.85;;;;;;;6.68;100.00;92855.47;2117483;28;20112;-82
2024/02/16 03:38:42;;;;;;;3.15;1.50;;;;;;;6.38;100.00;92852.78;2100934;28;20039;-83
2024/02/16 03:39:43;;;;;;;2.25;1.98;;;;;;;6.47;100.00;92853.81;2115958;27;20027;-83
2024/02/16 03:40:44;;;;;;;2.38;1.60;;;;;;;6.62;100.00;92851.00;2123796;27;20408;-82
2024/02/16 03:41:48;;;;;;;2.75;1.85;;;;;;;6.65;100.00;92850.94;2133281;27;20463;-83
2024/02/16 03:42:49;;;;;;;2.58;1.67;;;;;;;6.53;100.00;92860.19;2123900;27;20122;-80
2024/02/16 03:43:51;;;;;;;1.65;1.55;;;;;;;6.72;100.00;92850.13;2115337;28;20568;-83
2024/02/16 03:44:52;;;;;;;2.30;1.80;;;;;;;6.65;100.00;92853.59;2124084;27;20068;-82
2024/02/16 03:45:53;;;;;;;1.92;1.73;;;;;;;6.62;100.00;92856.28;2123992;27;20026;-81
2024/02/16 03:46:54;;;;;;;2.28;1.95;;;;;;;6.69;100.00;92856.97;2120965;27;20042;-83
2024/02/16 03:47:55;;;;;;;2.15;1.60;;;;;;;6.81;100.00;92856.47;2119065;27;20034;-81
2024/02/16 03:48:56;;;;;;;3.17;1.75;;;;;;;6.73;100.00;92860.34;2115523;28;20468;-82
2024/02/16 03:49:56;;;;;;;2.17;1.80;;;;;;;6.82;100.00;92860.63;2110040;28;20028;-81
2024/02/16 03:50:57;;;;;;;2.40;2.00;;;;;;;6.73;100.00;92855.03;2098612;28;20103;-82
2024/02/16 03:51:58;;;;;;;2.15;1.60;;;;;;;6.75;100.00;92851.97;2106757;28;20028;-82
2024/02/16 03:52:59;;;;;;;2.58;1.60;;;;;;;6.88;100.00;92849.53;2104619;28;20020;-80
2024/02/16 03:54:02;;;;;;;4.40;1.95;;;;;;;6.76;100.00;92848.94;2099435;28;20407;-80
2024/02/16 03:55:03;;;;;;;2.15;1.83;;;;;;;6.62;100.00;92858.94;2114702;28;20028;-81
2024/02/16 03:56:05;;;;;;;2.58;2.10;;;;;;;6.50;100.00;92849.63;2106924;28;20027;-81
2024/02/16 03:57:09;;;;;;;2.28;1.90;;;;;;;6.43;100.00;92853.09;2107148;28;20432;-82
2024/02/16 03:58:10;;;;;;;2.03;1.83;;;;;;;6.40;100.00;92853.13;2111940;27;20027;-81
2024/02/16 03:59:11;;;;;;;1.98;1.50;;;;;;;6.38;100.00;92850.88;2107087;28;20103;-81
2024/02/16 04:00:13;;;;;;;2.47;1.85;;;;;;;6.40;100.00;92848.56;2122306;27;20030;-81
2024/02/16 04:01:14;;;;;;;4.45;1.60;;;;;;;6.23;100.00;92849.50;2133043;27;20557;-81
2024/02/16 04:02:14;;;;;;;3.20;1.90;;;;;;;6.17;100.00;92845.75;2123863;27;20030;-83
2024/02/16 04:03:16;;;;;;;4.40;1.70;;;;;;;6.16;100.00;92854.88;2106909;28;20032;-82
2024/02/16 04:04:18;;;;;;;2.45;1.90;;;;;;;6.12;100.00;92852.25;2098839;28;20158;-82
2024/02/16 04:05:19;;;;;;;4.65;1.88;;;;;;;6.35;100.00;92848.25;2098801;28;20026;-81
2024/02/16 04:06:20;;;;;;;3.63;1.52;;;;;;;6.32;100.00;92849.78;2106978;28;20051;-82
2024/02/16 04:07:21;;;;;;;1.88;1.52;;;;;;;6.31;100.00;92850.94;2115432;28;20456;-83
2024/02/16 04:08:22;;;;;;;2.45;1.48;;;;;;;6.26;100.00;92856.66;2115550;28;20035;-81
2024/02/16 04:09:23;;;;;;;2.35;1.73;;;;;;;6.31;100.00;92856.97;2102543;28;20020;-81
2024/02/16 04:10:24;;;;;;;2.47;1.55;;;;;;;6.26;100.00;92852.13;2090326;28;20056;-81
2024/02/16 04:11:25;;;;;;;3.83;2.03;;;;;;;6.29;100.00;92858.53;2098585;28;20438;-82
2024/02/16 04:12:26;;;;;;;2.17;1.67;;;;;;;6.29;100.00;92853.25;2098396;28;20052;-83
2024/02/16 04:13:27;;;;;;;2.30;1.48;;;;;;;6.42;100.00;92858.81;2098527;28;20016;-81
2024/02/16 04:14:28;;;;;;;1.90;1.60;;;;;;;6.49;100.00;92853.41;2098512;28;20020;-82
2024/02/16 04:15:29;;;;;;;2.88;1.55;;;;;;;6.46;100.00;92860.28;2106994;27;20519;-82
2024/02/16 04:16:30;;;;;;;2.03;1.80;;;;;;;6.44;100.00;92856.50;2124366;27;20015;-81
2024/02/16 04:17:31;;;;;;;3.20;1.63;;;;;;;6.49;100.00;92856.06;2122653;27;20061;-82
2024/02/16 04:18:32;;;;;;;2.45;1.90;;;;;;;6.41;100.00;92858.06;2115154;28;20027;-83
2024/02/16 04:19:33;;;;;;;2.13;1.65;;;;;;;6.29;100.00;92861.19;2106989;28;20117;-82
2024/02/16 04:20:34;;;;;;;2.72;1.98;;;;;;;6.26;100.00;92869.94;2106648;28;20561;-82
2024/02/16 04:21:35;;;;;;;2.85;2.20;;;;;;;6.00;100.00;92860.69;2100307;28;20021;-82
2024/02/16 04:22:37;;;;;;;2.28;1.88;;;;;;;6.10;100.00;92862.50;2112900;28;20051;-82
2024/02/16 04:23:38;;;;;;;5.32;1.77;;;;;;;5.96;100.00;92866.03;2119110;27;20115;-81
2024/02/16 04:24:39;;;;;;;4.93;1.90;;;;;;;5.97;100.00;92867.56;2107384;28;20376;-82
2024/02/16 04:25:40;;;;;;;3.90;2.47;;;;;;;6.07;100.00;92865.19;2098150;28;20039;-81
2024/02/16 04:26:41;;;;;;;3.78;2.15;;;;;;;6.11;100.00;92868.56;2115279;28;20106;-81
2024/02/16 04:27:42;;;;;;;4.63;2.40;;;;;;;5.96;100.00;92876.63;2107925;28;20106;-82
2024/02/16 04:28:43;;;;;;;3.08;2.35;;;;;;;6.02;100.00;92872.44;2093252;28;20040;-80
2024/02/16 04:29:44;;;;;;;2.33;2.08;;;;;;;6.12;100.00;92864.78;2090170;28;20075;-82
2024/02/16 04:30:45;;;;;;;2.20;2.00;;;;;;;6.13;100.00;92872.31;2098314;28;20452;-81
2024/02/16 04:31:46;;;;;;;3.20;2.15;;;;;;;6.07;100.00;92867.84;2098185;28;20369;-83
2024/02/16 04:32:48;;;;;;;4.38;2.63;;;;;;;6.02;100.00;92875.09;2098616;28;20461;-83
2024/02/16 04:33:49;;;;;;;3.70;2.38;;;;;;;5.97;100.00;92872.09;2106692;28;20465;-80
2024/02/16 04:34:51;;;;;;;4.53;2.40;;;;;;;6.08;100.00;92869.34;2106734;28;20035;-80
2024/02/16 04:35:52;;;;;;;2.67;2.03;;;;;;;6.17;100.00;92873.06;2115457;27;20508;-81
2024/02/16 04:36:54;;;;;;;2.78;2.08;;;;;;;6.37;100.00;92862.63;2124226;27;20027;-82
2024/02/16 04:37:55;;;;;;;3.08;2.10;;;;;;;6.34;100.00;92860.00;2123660;27;20058;-82
2024/02/16 04:38:56;;;;;;;3.58;2.35;;;;;;;6.25;100.00;92866.53;2123839;27;20126;-81
2024/02/16 04:39:57;;;;;;;4.15;2.30;;;;;;;6.23;100.00;92870.72;2106595;28;20031;-80
2024/02/16 04:40:58;;;;;;;2.70;1.90;;;;;;;6.23;100.00;92866.19;2103107;28;20397;-83
2024/02/16 04:41:59;;;;;;;3.70;2.45;;;;;;;6.10;100.00;92867.06;2111905;28;20030;-82
2024/02/16 04:42:59;;;;;;;4.05;2.30;;;;;;;6.07;100.00;92870.50;2106499;28;20492;-82
2024/02/16 04:44:00;;;;;;;3.08;2.30;;;;;;;6.01;100.00;92865.63;2106943;28;20065;-80
2024/02/16 04:45:02;;;;;;;3.33;2.47;;;;;;;6.13;100.00;92866.28;2108000;28;20146;-81
2024/02/16 04:46:03;;;;;;;3.72;2.22;;;;;;;6.08;100.00;92864.03;2107164;28;20022;-82
2024/02/16 04:47:06;;;;;;;4.38;2.65;;;;;;;6.15;100.00;92866.66;2111319;28;20039;-82
2024/02/16 04:48:07;;;;;;;5.95;2.63;;;;;;;6.19;100.00;92862.81;2115057;28;20035;-83
2024/02/16 04:49:08;;;;;;;5.97;2.42;;;;;;;6.12;100.00;92870.06;2113910;28;20500;-81
2024/02/16 04:50:09;;;;;;;4.68;2.47;;;;;;;6.10;100.00;92867.81;2121072;27;20038;-82
2024/02/16 04:51:11;;;;;;;3.75;2.60;;;;;;;6.26;100.00;92857.41;2130043;27;20463;-82